createdAt,value
2019-05-25T00:00:10.565Z,4.20
2019-05-25T00:00:25.412Z,3.90
2019-05-25T00:01:10.585Z,3.90
2019-05-25T00:02:10.598Z,3.80
2019-05-25T00:02:54.310Z,3.90
2019-05-25T00:03:10.617Z,3.40
2019-05-25T00:04:10.635Z,3.70
2019-05-25T00:05:10.655Z,4.10
2019-05-25T00:05:23.160Z,3.90
2019-05-25T00:06:10.663Z,3.50
2019-05-25T00:07:10.690Z,3.90
2019-05-25T00:07:52.127Z,3.77
2019-05-25T00:08:10.703Z,3.70
2019-05-25T00:09:10.722Z,3.50
2019-05-25T00:10:10.735Z,3.80
2019-05-25T00:10:20.989Z,4.10
2019-05-25T00:11:10.755Z,4.20
2019-05-25T00:12:10.773Z,4.50
2019-05-25T00:12:49.862Z,4.60
2019-05-25T00:13:10.786Z,3.90
2019-05-25T00:14:10.805Z,4.10
2019-05-25T00:15:10.822Z,4.60
2019-05-25T00:15:18.715Z,4.50
2019-05-25T00:16:10.840Z,4.20
2019-05-25T00:17:10.856Z,4.50
2019-05-25T00:17:47.637Z,4.03
2019-05-25T00:18:10.878Z,3.90
2019-05-25T00:19:10.893Z,3.80
2019-05-25T00:20:10.914Z,3.70
2019-05-25T00:20:16.487Z,4.07
2019-05-25T00:21:13.832Z,3.40
2019-05-25T00:22:10.945Z,3.90
2019-05-25T00:22:45.361Z,3.77
2019-05-25T00:23:10.961Z,3.90
2019-05-25T00:24:12.606Z,3.70
2019-05-25T00:25:11.001Z,3.70
2019-05-25T00:25:14.235Z,4.20
2019-05-25T00:26:11.014Z,3.80
2019-05-25T00:27:11.031Z,3.60
2019-05-25T00:27:43.092Z,4.27
2019-05-25T00:28:11.048Z,3.70
2019-05-25T00:29:11.077Z,3.80
2019-05-25T00:30:11.085Z,4.00
2019-05-25T00:30:12.060Z,4.03
2019-05-25T00:31:11.098Z,4.00
2019-05-25T00:32:11.117Z,4.10
2019-05-25T00:32:40.961Z,5.23
2019-05-25T00:33:11.135Z,4.30
2019-05-25T00:34:11.161Z,4.30
2019-05-25T00:35:09.968Z,4.47
2019-05-25T00:35:11.171Z,4.60
2019-05-25T00:36:11.192Z,4.00
2019-05-25T00:37:11.205Z,4.30
2019-05-25T00:37:38.801Z,4.23
2019-05-25T00:38:11.221Z,4.10
2019-05-25T00:39:11.237Z,4.20
2019-05-25T00:40:07.728Z,4.13
2019-05-25T00:40:11.258Z,4.30
2019-05-25T00:41:11.274Z,4.20
2019-05-25T00:42:11.290Z,4.20
2019-05-25T00:42:36.631Z,4.00
2019-05-25T00:43:11.308Z,4.70
2019-05-25T00:44:11.326Z,4.20
2019-05-25T00:45:05.794Z,4.47
2019-05-25T00:45:11.340Z,4.10
2019-05-25T00:46:11.502Z,4.40
2019-05-25T00:47:11.378Z,3.60
2019-05-25T00:47:34.633Z,4.13
2019-05-25T00:48:11.400Z,3.80
2019-05-25T00:49:11.429Z,3.70
2019-05-25T00:50:03.538Z,4.17
2019-05-25T00:50:11.434Z,3.80
2019-05-25T00:51:11.597Z,3.60
2019-05-25T00:52:11.504Z,3.80
2019-05-25T00:52:32.382Z,4.60
2019-05-25T00:53:11.487Z,4.00
2019-05-25T00:54:26.754Z,3.90
2019-05-25T00:55:01.248Z,4.10
2019-05-25T00:55:11.524Z,4.20
2019-05-25T00:56:11.531Z,4.00
2019-05-25T00:57:11.548Z,4.30
2019-05-25T00:57:30.115Z,4.00
2019-05-25T00:58:11.562Z,4.00
2019-05-25T00:59:11.587Z,4.00
2019-05-25T00:59:59.047Z,4.60
2019-05-25T01:00:11.659Z,4.20
2019-05-25T01:01:11.644Z,3.80
2019-05-25T01:02:11.635Z,3.70
2019-05-25T01:02:27.999Z,4.47
2019-05-25T01:03:11.655Z,3.90
2019-05-25T01:04:11.670Z,4.20
2019-05-25T01:04:56.903Z,4.50
2019-05-25T01:05:11.688Z,4.10
2019-05-25T01:06:11.703Z,3.70
2019-05-25T01:07:11.723Z,4.20
2019-05-25T01:07:25.773Z,3.80
2019-05-25T01:08:11.740Z,3.80
2019-05-25T01:09:11.754Z,3.60
2019-05-25T01:09:54.690Z,4.30
2019-05-25T01:10:11.810Z,4.00
2019-05-25T01:11:11.854Z,3.80
2019-05-25T01:12:11.848Z,3.90
2019-05-25T01:12:23.499Z,4.77
2019-05-25T01:13:11.826Z,3.80
2019-05-25T01:14:11.852Z,4.00
2019-05-25T01:14:52.458Z,4.70
2019-05-25T01:15:11.873Z,4.70
2019-05-25T01:16:11.880Z,4.00
2019-05-25T01:17:11.894Z,4.10
2019-05-25T01:17:21.343Z,4.67
2019-05-25T01:18:11.912Z,4.20
2019-05-25T01:19:11.935Z,4.60
2019-05-25T01:19:50.582Z,5.20
2019-05-25T01:20:12.033Z,4.20
2019-05-25T01:21:11.959Z,4.60
2019-05-25T01:22:11.991Z,4.60
2019-05-25T01:22:19.475Z,4.70
2019-05-25T01:23:12.008Z,4.20
2019-05-25T01:24:12.029Z,3.90
2019-05-25T01:24:48.349Z,4.20
2019-05-25T01:25:12.047Z,4.30
2019-05-25T01:26:12.056Z,3.70
2019-05-25T01:27:12.062Z,3.80
2019-05-25T01:27:17.213Z,4.47
2019-05-25T01:28:12.093Z,3.90
2019-05-25T01:29:12.114Z,4.20
2019-05-25T01:29:46.083Z,4.43
2019-05-25T01:30:12.120Z,4.00
2019-05-25T01:31:12.126Z,3.80
2019-05-25T01:32:12.156Z,4.10
2019-05-25T01:32:15.080Z,5.57
2019-05-25T01:33:12.211Z,4.20
2019-05-25T01:34:12.186Z,4.60
2019-05-25T01:34:44.087Z,4.40
2019-05-25T01:35:12.206Z,4.10
2019-05-25T01:36:12.220Z,4.00
2019-05-25T01:37:12.231Z,4.10
2019-05-25T01:37:13.074Z,5.13
2019-05-25T01:38:12.251Z,4.10
2019-05-25T01:39:12.280Z,4.60
2019-05-25T01:39:42.048Z,5.00
2019-05-25T01:40:12.320Z,4.40
2019-05-25T01:41:12.327Z,4.50
2019-05-25T01:42:10.918Z,5.03
2019-05-25T01:42:12.320Z,4.60
2019-05-25T01:43:12.340Z,4.80
2019-05-25T01:44:12.360Z,4.60
2019-05-25T01:44:39.791Z,4.47
2019-05-25T01:45:12.368Z,4.70
2019-05-25T01:46:12.400Z,4.60
2019-05-25T01:47:08.653Z,5.27
2019-05-25T01:47:12.395Z,4.40
2019-05-25T01:48:12.414Z,4.20
2019-05-25T01:49:12.502Z,4.70
2019-05-25T01:49:37.556Z,5.10
2019-05-25T01:50:12.450Z,4.80
2019-05-25T01:51:12.472Z,4.20
2019-05-25T01:52:06.403Z,5.00
2019-05-25T01:52:12.545Z,4.60
2019-05-25T01:53:12.506Z,4.40
2019-05-25T01:54:12.642Z,4.60
2019-05-25T01:54:35.322Z,4.93
2019-05-25T01:55:12.537Z,4.80
2019-05-25T01:56:12.555Z,4.40
2019-05-25T01:57:04.264Z,5.53
2019-05-25T01:57:12.567Z,4.80
2019-05-25T01:58:12.585Z,4.50
2019-05-25T01:59:12.650Z,4.80
2019-05-25T01:59:33.153Z,5.63
2019-05-25T02:00:12.621Z,4.80
2019-05-25T02:01:12.634Z,4.30
2019-05-25T02:02:02.018Z,5.27
2019-05-25T02:02:12.657Z,4.60
2019-05-25T02:03:12.673Z,4.50
2019-05-25T02:04:12.827Z,4.40
2019-05-25T02:04:30.882Z,5.23
2019-05-25T02:05:12.713Z,4.80
2019-05-25T02:06:12.713Z,4.20
2019-05-25T02:06:59.731Z,4.90
2019-05-25T02:07:12.732Z,4.80
2019-05-25T02:08:12.802Z,4.90
2019-05-25T02:09:12.768Z,4.90
2019-05-25T02:09:28.616Z,5.20
2019-05-25T02:10:12.779Z,5.00
2019-05-25T02:11:12.794Z,4.60
2019-05-25T02:11:57.460Z,5.97
2019-05-25T02:12:12.820Z,5.30
2019-05-25T02:13:12.829Z,5.40
2019-05-25T02:14:12.975Z,5.60
2019-05-25T02:14:26.368Z,5.73
2019-05-25T02:15:12.869Z,5.20
2019-05-25T02:16:12.882Z,5.40
2019-05-25T02:16:55.210Z,5.60
2019-05-25T02:17:12.893Z,5.00
2019-05-25T02:18:12.916Z,5.00
2019-05-25T02:19:12.931Z,5.40
2019-05-25T02:19:24.088Z,5.43
2019-05-25T02:20:12.959Z,4.80
2019-05-25T02:21:12.961Z,4.70
2019-05-25T02:21:52.936Z,5.40
2019-05-25T02:22:12.975Z,5.40
2019-05-25T02:23:13.004Z,5.00
2019-05-25T02:24:13.013Z,4.70
2019-05-25T02:24:21.802Z,5.70
2019-05-25T02:25:18.337Z,5.40
2019-05-25T02:26:13.038Z,4.90
2019-05-25T02:26:50.697Z,4.67
2019-05-25T02:27:13.056Z,4.60
2019-05-25T02:28:13.074Z,4.50
2019-05-25T02:29:13.095Z,4.50
2019-05-25T02:29:19.654Z,5.50
2019-05-25T02:30:13.172Z,4.50
2019-05-25T02:31:13.281Z,4.80
2019-05-25T02:31:48.515Z,4.83
2019-05-25T02:32:13.293Z,4.50
2019-05-25T02:33:13.360Z,4.70
2019-05-25T02:34:13.216Z,4.20
2019-05-25T02:34:17.384Z,4.70
2019-05-25T02:35:13.217Z,5.00
2019-05-25T02:36:13.242Z,4.40
2019-05-25T02:36:46.249Z,5.83
2019-05-25T02:37:13.280Z,4.40
2019-05-25T02:38:13.328Z,5.00
2019-05-25T02:39:13.305Z,4.80
2019-05-25T02:39:15.096Z,5.10
2019-05-25T02:40:13.285Z,4.60
2019-05-25T02:41:13.292Z,4.90
2019-05-25T02:41:44.022Z,4.90
2019-05-25T02:42:13.453Z,4.50
2019-05-25T02:43:13.328Z,5.00
2019-05-25T02:44:12.852Z,4.93
2019-05-25T02:44:13.348Z,4.50
2019-05-25T02:45:13.363Z,4.60
2019-05-25T02:46:13.379Z,4.80
2019-05-25T02:46:41.764Z,5.20
2019-05-25T02:47:13.387Z,4.70
2019-05-25T02:48:13.421Z,4.50
2019-05-25T02:49:10.607Z,4.97
2019-05-25T02:49:13.430Z,4.70
2019-05-25T02:50:13.441Z,4.60
2019-05-25T02:51:13.477Z,4.60
2019-05-25T02:51:39.473Z,5.50
2019-05-25T02:52:13.492Z,4.60
2019-05-25T02:53:13.493Z,4.90
2019-05-25T02:54:08.347Z,5.73
2019-05-25T02:54:13.503Z,4.50
2019-05-25T02:55:13.517Z,4.90
2019-05-25T02:56:13.538Z,5.00
2019-05-25T02:56:37.281Z,6.00
2019-05-25T02:57:13.550Z,4.90
2019-05-25T02:58:13.565Z,4.90
2019-05-25T02:59:06.134Z,5.77
2019-05-25T02:59:13.581Z,5.30
2019-05-25T03:00:13.599Z,5.50
2019-05-25T03:01:13.619Z,5.10
2019-05-25T03:01:35.008Z,5.63
2019-05-25T03:02:13.631Z,5.40
2019-05-25T03:03:13.706Z,5.50
2019-05-25T03:04:03.867Z,6.57
2019-05-25T03:04:13.666Z,5.70
2019-05-25T03:05:13.682Z,6.10
2019-05-25T03:06:13.728Z,6.00
2019-05-25T03:06:33.111Z,5.80
2019-05-25T03:07:13.720Z,5.80
2019-05-25T03:08:13.729Z,6.00
2019-05-25T03:09:02.078Z,5.80
2019-05-25T03:09:13.747Z,5.90
2019-05-25T03:10:13.770Z,5.30
2019-05-25T03:11:13.777Z,5.90
2019-05-25T03:11:32.046Z,5.83
2019-05-25T03:12:13.813Z,5.50
2019-05-25T03:13:13.813Z,5.50
2019-05-25T03:14:01.230Z,5.87
2019-05-25T03:14:13.828Z,5.20
2019-05-25T03:15:13.847Z,5.20
2019-05-25T03:16:13.857Z,5.60
2019-05-25T03:16:30.148Z,5.93
2019-05-25T03:17:13.875Z,5.00
2019-05-25T03:18:13.901Z,5.70
2019-05-25T03:18:59.051Z,5.50
2019-05-25T03:19:13.905Z,5.60
2019-05-25T03:20:13.927Z,5.50
2019-05-25T03:21:13.938Z,5.40
2019-05-25T03:21:27.921Z,6.07
2019-05-25T03:22:13.953Z,5.30
2019-05-25T03:23:13.972Z,6.20
2019-05-25T03:23:56.815Z,5.83
2019-05-25T03:24:13.991Z,5.40
2019-05-25T03:25:14.011Z,5.60
2019-05-25T03:26:14.019Z,5.80
2019-05-25T03:26:25.701Z,6.27
2019-05-25T03:27:14.038Z,6.00
2019-05-25T03:28:14.050Z,5.70
2019-05-25T03:28:54.550Z,6.20
2019-05-25T03:29:14.064Z,5.60
2019-05-25T03:30:14.085Z,5.90
2019-05-25T03:31:14.104Z,5.80
2019-05-25T03:31:23.445Z,6.23
2019-05-25T03:32:14.122Z,6.20
2019-05-25T03:33:14.134Z,5.90
2019-05-25T03:33:52.306Z,5.00
2019-05-25T03:34:14.154Z,6.10
2019-05-25T03:35:14.167Z,5.60
2019-05-25T03:36:14.194Z,5.50
2019-05-25T03:36:21.195Z,5.47
2019-05-25T03:37:14.200Z,5.30
2019-05-25T03:38:14.210Z,6.00
2019-05-25T03:38:50.034Z,5.67
2019-05-25T03:39:14.230Z,6.00
2019-05-25T03:40:14.243Z,6.00
2019-05-25T03:41:14.261Z,6.20
2019-05-25T03:41:18.940Z,6.33
2019-05-25T03:42:14.282Z,6.40
2019-05-25T03:43:14.298Z,6.50
2019-05-25T03:43:47.858Z,6.80
2019-05-25T03:44:14.310Z,6.20
2019-05-25T03:45:14.325Z,6.00
2019-05-25T03:46:14.340Z,6.70
2019-05-25T03:46:16.772Z,7.00
2019-05-25T03:47:14.366Z,5.90
2019-05-25T03:48:14.375Z,6.60
2019-05-25T03:48:45.660Z,7.53
2019-05-25T03:49:14.389Z,7.00
2019-05-25T03:50:14.406Z,7.00
2019-05-25T03:51:14.425Z,6.30
2019-05-25T03:51:14.543Z,6.77
2019-05-25T03:52:14.439Z,6.10
2019-05-25T03:53:14.456Z,6.20
2019-05-25T03:53:43.393Z,6.93
2019-05-25T03:54:14.472Z,6.30
2019-05-25T03:55:14.493Z,6.40
2019-05-25T03:56:12.267Z,7.00
2019-05-25T03:56:14.502Z,6.10
2019-05-25T03:57:14.525Z,5.30
2019-05-25T03:58:14.536Z,5.90
2019-05-25T03:58:41.121Z,6.40
2019-05-25T03:59:14.552Z,6.70
2019-05-25T04:00:14.581Z,6.10
2019-05-25T04:01:10.401Z,6.73
2019-05-25T04:01:14.585Z,6.10
2019-05-25T04:02:14.598Z,6.10
2019-05-25T04:03:14.615Z,6.20
2019-05-25T04:03:39.261Z,6.63
2019-05-25T04:04:14.634Z,6.40
2019-05-25T04:05:14.654Z,6.60
2019-05-25T04:06:08.152Z,7.30
2019-05-25T04:06:14.666Z,6.50
2019-05-25T04:07:14.683Z,6.40
2019-05-25T04:08:14.700Z,6.20
2019-05-25T04:08:36.980Z,7.03
2019-05-25T04:09:14.715Z,7.00
2019-05-25T04:10:14.733Z,7.30
2019-05-25T04:11:05.869Z,7.57
2019-05-25T04:11:14.747Z,6.90
2019-05-25T04:12:14.762Z,7.40
2019-05-25T04:13:14.782Z,6.80
2019-05-25T04:13:34.725Z,7.20
2019-05-25T04:14:14.798Z,7.10
2019-05-25T04:15:14.814Z,6.50
2019-05-25T04:16:03.649Z,8.03
2019-05-25T04:16:14.830Z,7.00
2019-05-25T04:17:14.852Z,7.20
2019-05-25T04:18:14.869Z,7.30
2019-05-25T04:18:32.587Z,6.90
2019-05-25T04:19:14.878Z,7.40
2019-05-25T04:20:14.900Z,6.30
2019-05-25T04:21:01.500Z,6.70
2019-05-25T04:21:14.914Z,6.70
2019-05-25T04:22:14.931Z,6.90
2019-05-25T04:23:14.945Z,7.20
2019-05-25T04:23:30.354Z,7.00
2019-05-25T04:24:14.962Z,7.30
2019-05-25T04:25:14.983Z,7.00
2019-05-25T04:25:59.265Z,8.00
2019-05-25T04:26:22.344Z,7.40
2019-05-25T04:27:15.011Z,7.40
2019-05-25T04:28:15.031Z,7.20
2019-05-25T04:28:28.108Z,7.43
2019-05-25T04:29:15.046Z,7.60
2019-05-25T04:30:15.061Z,7.40
2019-05-25T04:30:57.039Z,8.77
2019-05-25T04:31:15.085Z,8.10
2019-05-25T04:32:15.095Z,7.70
2019-05-25T04:33:15.113Z,7.70
2019-05-25T04:33:25.996Z,7.53
2019-05-25T04:34:15.128Z,7.50
2019-05-25T04:35:15.146Z,8.10
2019-05-25T04:35:54.857Z,7.50
2019-05-25T04:36:15.163Z,7.50
2019-05-25T04:37:15.178Z,7.90
2019-05-25T04:38:15.194Z,8.20
2019-05-25T04:38:23.697Z,7.57
2019-05-25T04:39:15.209Z,8.00
2019-05-25T04:40:15.227Z,7.90
2019-05-25T04:40:52.638Z,8.30
2019-05-25T04:41:15.241Z,7.80
2019-05-25T04:42:15.263Z,7.70
2019-05-25T04:43:15.280Z,8.10
2019-05-25T04:43:21.655Z,8.37
2019-05-25T04:44:15.294Z,8.30
2019-05-25T04:45:15.310Z,7.80
2019-05-25T04:45:50.540Z,8.63
2019-05-25T04:46:15.327Z,8.20
2019-05-25T04:47:26.464Z,7.70
2019-05-25T04:48:15.365Z,7.90
2019-05-25T04:48:19.418Z,8.43
2019-05-25T04:49:15.375Z,8.00
2019-05-25T04:50:15.393Z,7.60
2019-05-25T04:50:48.301Z,8.10
2019-05-25T04:51:15.412Z,8.10
2019-05-25T04:52:15.434Z,8.30
2019-05-25T04:53:15.448Z,7.80
2019-05-25T04:53:17.150Z,7.70
2019-05-25T04:54:15.466Z,7.40
2019-05-25T04:55:15.477Z,8.00
2019-05-25T04:55:46.049Z,7.73
2019-05-25T04:56:15.498Z,7.50
2019-05-25T04:57:15.533Z,7.70
2019-05-25T04:58:14.907Z,8.23
2019-05-25T04:58:15.528Z,8.00
2019-05-25T04:59:15.546Z,8.80
2019-05-25T05:00:15.564Z,8.30
2019-05-25T05:00:43.759Z,8.07
2019-05-25T05:01:15.579Z,8.10
2019-05-25T05:02:15.594Z,8.80
2019-05-25T05:03:12.631Z,9.60
2019-05-25T05:03:15.607Z,9.20
2019-05-25T05:04:15.630Z,9.40
2019-05-25T05:05:15.645Z,9.40
2019-05-25T05:05:41.504Z,9.53
2019-05-25T05:06:15.670Z,8.30
2019-05-25T05:07:15.687Z,8.10
2019-05-25T05:08:10.424Z,9.33
2019-05-25T05:08:15.696Z,8.80
2019-05-25T05:09:15.712Z,8.70
2019-05-25T05:10:15.739Z,9.20
2019-05-25T05:10:39.279Z,9.20
2019-05-25T05:11:15.747Z,9.00
2019-05-25T05:12:15.764Z,8.90
2019-05-25T05:13:08.196Z,8.77
2019-05-25T05:13:15.785Z,9.30
2019-05-25T05:14:15.803Z,8.80
2019-05-25T05:15:15.821Z,10.00
2019-05-25T05:15:37.055Z,9.17
2019-05-25T05:16:15.829Z,9.50
2019-05-25T05:17:15.897Z,9.50
2019-05-25T05:18:05.931Z,9.57
2019-05-25T05:18:15.862Z,9.50
2019-05-25T05:19:15.884Z,8.90
2019-05-25T05:20:15.896Z,9.80
2019-05-25T05:20:34.797Z,8.70
2019-05-25T05:21:15.913Z,9.50
2019-05-25T05:22:15.931Z,8.90
2019-05-25T05:23:03.695Z,9.10
2019-05-25T05:23:15.950Z,8.80
2019-05-25T05:24:15.972Z,9.30
2019-05-25T05:25:15.985Z,9.30
2019-05-25T05:25:32.550Z,8.80
2019-05-25T05:26:16.001Z,8.70
2019-05-25T05:27:16.016Z,9.40
2019-05-25T05:28:01.432Z,8.43
2019-05-25T05:28:16.038Z,9.00
2019-05-25T05:29:16.062Z,8.90
2019-05-25T05:30:16.076Z,9.00
2019-05-25T05:30:33.507Z,8.77
2019-05-25T05:31:23.630Z,9.40
2019-05-25T05:32:27.152Z,9.10
2019-05-25T05:33:02.585Z,8.00
2019-05-25T05:33:16.125Z,9.00
2019-05-25T05:34:16.139Z,8.90
2019-05-25T05:35:16.154Z,9.60
2019-05-25T05:35:32.970Z,8.57
2019-05-25T05:36:16.171Z,9.10
2019-05-25T05:37:16.189Z,9.40
2019-05-25T05:38:03.248Z,8.87
2019-05-25T05:38:16.207Z,8.70
2019-05-25T05:39:16.225Z,8.40
2019-05-25T05:40:16.239Z,8.20
2019-05-25T05:40:32.431Z,7.97
2019-05-25T05:41:16.258Z,8.60
2019-05-25T05:42:16.278Z,8.50
2019-05-25T05:43:02.806Z,7.00
2019-05-25T05:43:16.293Z,8.00
2019-05-25T05:44:16.309Z,8.20
2019-05-25T05:45:16.324Z,7.80
2019-05-25T05:45:32.239Z,7.67
2019-05-25T05:46:16.349Z,8.00
2019-05-25T05:47:16.373Z,8.00
2019-05-25T05:48:02.035Z,7.50
2019-05-25T05:48:16.381Z,7.90
2019-05-25T05:49:16.396Z,8.10
2019-05-25T05:50:16.431Z,7.60
2019-05-25T05:50:32.015Z,7.30
2019-05-25T05:51:16.430Z,7.60
2019-05-25T05:52:16.487Z,7.50
2019-05-25T05:53:02.884Z,7.37
2019-05-25T05:53:16.467Z,7.50
2019-05-25T05:54:16.482Z,7.00
2019-05-25T05:55:17.468Z,7.30
2019-05-25T05:55:31.954Z,6.77
2019-05-25T05:56:16.515Z,7.40
2019-05-25T05:57:16.544Z,7.40
2019-05-25T05:58:01.272Z,7.10
2019-05-25T05:58:16.554Z,8.00
2019-05-25T05:59:16.597Z,7.70
2019-05-25T06:00:16.589Z,7.40
2019-05-25T06:00:30.438Z,6.93
2019-05-25T06:01:16.604Z,7.50
2019-05-25T06:02:16.620Z,7.40
2019-05-25T06:02:59.419Z,8.23
2019-05-25T06:03:16.689Z,7.60
2019-05-25T06:04:16.774Z,7.40
2019-05-25T06:05:16.709Z,7.50
2019-05-25T06:05:28.443Z,6.90
2019-05-25T06:06:16.689Z,7.90
2019-05-25T06:07:16.722Z,7.40
2019-05-25T06:07:57.365Z,7.23
2019-05-25T06:08:16.741Z,7.00
2019-05-25T06:09:16.751Z,7.70
2019-05-25T06:10:16.763Z,7.10
2019-05-25T06:10:26.280Z,7.97
2019-05-25T06:11:16.781Z,7.60
2019-05-25T06:12:16.798Z,7.50
2019-05-25T06:12:55.156Z,6.47
2019-05-25T06:13:16.815Z,7.30
2019-05-25T06:14:16.834Z,6.80
2019-05-25T06:15:16.857Z,6.50
2019-05-25T06:15:24.006Z,6.87
2019-05-25T06:16:16.873Z,6.40
2019-05-25T06:17:16.891Z,6.60
2019-05-25T06:17:52.904Z,6.10
2019-05-25T06:18:16.909Z,6.60
2019-05-25T06:19:16.922Z,6.50
2019-05-25T06:20:16.941Z,7.30
2019-05-25T06:20:23.217Z,5.80
2019-05-25T06:21:16.967Z,7.20
2019-05-25T06:22:16.994Z,6.50
2019-05-25T06:22:52.064Z,6.37
2019-05-25T06:23:17.005Z,6.30
2019-05-25T06:24:17.015Z,6.10
2019-05-25T06:25:17.033Z,6.10
2019-05-25T06:25:21.051Z,5.60
2019-05-25T06:26:17.084Z,6.50
2019-05-25T06:27:26.903Z,6.20
2019-05-25T06:27:49.914Z,5.20
2019-05-25T06:28:20.134Z,6.30
2019-05-25T06:29:17.109Z,6.10
2019-05-25T06:30:17.129Z,6.00
2019-05-25T06:30:19.275Z,5.20
2019-05-25T06:31:17.143Z,5.80
2019-05-25T06:32:17.165Z,5.60
2019-05-25T06:32:48.167Z,5.90
2019-05-25T06:33:17.181Z,5.80
2019-05-25T06:34:17.200Z,6.20
2019-05-25T06:35:17.012Z,5.10
2019-05-25T06:35:17.211Z,6.30
2019-05-25T06:36:17.238Z,6.40
2019-05-25T06:37:17.260Z,5.60
2019-05-25T06:37:45.953Z,4.87
2019-05-25T06:38:17.266Z,6.40
2019-05-25T06:39:17.285Z,5.40
2019-05-25T06:40:15.074Z,5.57
2019-05-25T06:40:17.302Z,5.90
2019-05-25T06:41:17.336Z,5.30
2019-05-25T06:42:17.340Z,5.80
2019-05-25T06:42:43.967Z,5.60
2019-05-25T06:43:17.357Z,5.80
2019-05-25T06:44:17.374Z,6.20
2019-05-25T06:45:14.152Z,4.67
2019-05-25T06:45:17.432Z,6.10
2019-05-25T06:46:17.419Z,5.70
2019-05-25T06:47:17.439Z,5.80
2019-05-25T06:47:43.000Z,5.47
2019-05-25T06:48:17.452Z,6.20
2019-05-25T06:49:17.470Z,5.90
2019-05-25T06:50:11.867Z,5.00
2019-05-25T06:50:17.485Z,6.10
2019-05-25T06:51:17.506Z,6.20
2019-05-25T06:52:17.539Z,5.90
2019-05-25T06:52:40.779Z,5.37
2019-05-25T06:53:17.552Z,5.60
2019-05-25T06:54:17.558Z,5.30
2019-05-25T06:55:09.755Z,4.80
2019-05-25T06:55:17.580Z,5.90
2019-05-25T06:56:17.629Z,5.30
2019-05-25T06:57:17.620Z,5.50
2019-05-25T06:57:43.592Z,2.97
2019-05-25T06:58:17.633Z,4.50
2019-05-25T06:59:17.700Z,3.40
2019-05-25T07:00:10.365Z,3.43
2019-05-25T07:00:17.668Z,3.30
2019-05-25T07:01:17.705Z,3.40
2019-05-25T07:02:17.715Z,3.70
2019-05-25T07:02:39.307Z,3.53
2019-05-25T07:03:17.733Z,3.60
2019-05-25T07:04:17.746Z,3.80
2019-05-25T07:05:08.677Z,3.70
2019-05-25T07:05:17.760Z,3.30
2019-05-25T07:06:17.786Z,4.00
2019-05-25T07:07:17.804Z,3.90
2019-05-25T07:07:37.627Z,2.93
2019-05-25T07:08:17.831Z,3.80
2019-05-25T07:09:17.848Z,3.70
2019-05-25T07:10:06.562Z,4.30
2019-05-25T07:10:17.854Z,3.50
2019-05-25T07:11:17.874Z,4.90
2019-05-25T07:12:17.913Z,4.70
2019-05-25T07:12:35.519Z,6.73
2019-05-25T07:13:17.916Z,4.50
2019-05-25T07:14:17.928Z,9.30
2019-05-25T07:15:04.576Z,5.87
2019-05-25T07:15:17.953Z,5.60
2019-05-25T07:16:17.967Z,8.00
2019-05-25T07:17:17.987Z,10.30
2019-05-25T07:17:33.447Z,3.77
2019-05-25T07:18:18.051Z,4.90
2019-05-25T07:19:18.043Z,4.00
2019-05-25T07:20:02.339Z,2.80
2019-05-25T07:20:18.040Z,3.60
2019-05-25T07:21:18.053Z,3.10
2019-05-25T07:22:18.075Z,3.10
2019-05-25T07:22:31.171Z,2.80
2019-05-25T07:23:18.089Z,3.00
2019-05-25T07:24:18.109Z,3.20
2019-05-25T07:25:00.062Z,2.87
2019-05-25T07:25:20.189Z,3.10
2019-05-25T07:26:18.140Z,3.10
2019-05-25T07:27:18.179Z,3.00
2019-05-25T07:27:28.918Z,2.37
2019-05-25T07:28:18.187Z,2.80
2019-05-25T07:29:18.199Z,2.90
2019-05-25T07:29:57.912Z,2.40
2019-05-25T07:30:18.219Z,2.70
2019-05-25T07:31:18.230Z,2.90
2019-05-25T07:32:18.251Z,3.10
2019-05-25T07:32:26.754Z,2.27
2019-05-25T07:33:18.268Z,2.60
2019-05-25T07:34:18.287Z,2.90
2019-05-25T07:34:55.623Z,2.67
2019-05-25T07:35:18.318Z,3.00
2019-05-25T07:36:18.326Z,2.50
2019-05-25T07:37:18.344Z,3.00
2019-05-25T07:37:24.478Z,2.67
2019-05-25T07:38:18.360Z,2.80
2019-05-25T07:39:18.375Z,2.60
2019-05-25T07:39:53.375Z,2.30
2019-05-25T07:40:18.395Z,2.50
2019-05-25T07:41:18.411Z,2.90
2019-05-25T07:42:20.095Z,2.50
2019-05-25T07:42:22.293Z,2.63
2019-05-25T07:43:18.452Z,2.70
2019-05-25T07:44:18.467Z,2.80
2019-05-25T07:44:51.216Z,2.60
2019-05-25T07:45:18.486Z,3.20
2019-05-25T07:46:18.501Z,3.20
2019-05-25T07:47:18.532Z,2.70
2019-05-25T07:47:20.086Z,2.97
2019-05-25T07:48:18.566Z,3.50
2019-05-25T07:49:18.556Z,2.40
2019-05-25T07:49:48.975Z,2.57
2019-05-25T07:50:18.580Z,2.90
2019-05-25T07:51:18.593Z,2.60
2019-05-25T07:52:17.822Z,2.60
2019-05-25T07:52:18.619Z,2.80
2019-05-25T07:53:18.631Z,3.00
2019-05-25T07:54:18.647Z,2.50
2019-05-25T07:54:46.707Z,2.30
2019-05-25T07:55:18.668Z,2.60
2019-05-25T07:56:18.682Z,2.60
2019-05-25T07:57:15.569Z,2.37
2019-05-25T07:57:18.704Z,2.60
2019-05-25T07:58:18.817Z,2.70
2019-05-25T07:59:18.739Z,2.60
2019-05-25T07:59:44.457Z,2.10
2019-05-25T08:00:18.764Z,2.90
2019-05-25T08:01:18.771Z,3.30
2019-05-25T08:02:13.298Z,2.50
2019-05-25T08:02:18.786Z,2.80
2019-05-25T08:03:18.809Z,2.80
2019-05-25T08:04:18.826Z,3.00
2019-05-25T08:04:42.290Z,2.63
2019-05-25T08:05:18.849Z,3.10
2019-05-25T08:06:18.881Z,3.10
2019-05-25T08:07:11.128Z,2.90
2019-05-25T08:07:18.892Z,3.20
2019-05-25T08:08:18.913Z,3.00
2019-05-25T08:09:18.916Z,3.30
2019-05-25T08:09:40.061Z,3.10
2019-05-25T08:10:18.931Z,3.10
2019-05-25T08:11:18.950Z,3.70
2019-05-25T08:12:08.899Z,3.20
2019-05-25T08:12:18.971Z,3.20
2019-05-25T08:13:18.987Z,2.90
2019-05-25T08:14:19.003Z,3.20
2019-05-25T08:14:37.787Z,2.70
2019-05-25T08:15:19.024Z,3.20
2019-05-25T08:16:19.039Z,3.00
2019-05-25T08:17:06.685Z,2.73
2019-05-25T08:17:19.184Z,3.70
2019-05-25T08:18:19.117Z,3.40
2019-05-25T08:19:19.177Z,3.00
2019-05-25T08:19:35.556Z,4.70
2019-05-25T08:20:19.190Z,4.70
2019-05-25T08:21:19.171Z,4.10
2019-05-25T08:22:04.531Z,2.23
2019-05-25T08:22:19.189Z,3.60
2019-05-25T08:23:19.197Z,3.50
2019-05-25T08:24:19.263Z,3.30
2019-05-25T08:24:33.392Z,2.17
2019-05-25T08:25:19.231Z,3.00
2019-05-25T08:26:19.234Z,2.50
2019-05-25T08:27:02.280Z,2.20
2019-05-25T08:27:19.255Z,2.70
2019-05-25T08:28:31.642Z,2.40
2019-05-25T08:29:19.434Z,2.90
2019-05-25T08:29:31.224Z,1.87
2019-05-25T08:30:19.289Z,2.50
2019-05-25T08:31:19.319Z,2.70
2019-05-25T08:32:00.077Z,2.27
2019-05-25T08:32:19.334Z,2.70
2019-05-25T08:33:19.357Z,2.90
2019-05-25T08:34:19.395Z,2.50
2019-05-25T08:34:29.025Z,2.10
2019-05-25T08:35:19.546Z,2.10
2019-05-25T08:36:19.405Z,2.10
2019-05-25T08:36:57.935Z,1.60
2019-05-25T08:37:19.440Z,2.40
2019-05-25T08:38:19.440Z,2.30
2019-05-25T08:39:19.453Z,2.20
2019-05-25T08:39:26.809Z,1.63
2019-05-25T08:40:19.471Z,2.40
2019-05-25T08:41:19.494Z,2.10
2019-05-25T08:41:55.744Z,1.83
2019-05-25T08:42:19.513Z,1.90
2019-05-25T08:43:19.523Z,2.00
2019-05-25T08:44:19.541Z,1.90
2019-05-25T08:44:24.618Z,1.77
2019-05-25T08:45:19.565Z,1.70
2019-05-25T08:46:19.713Z,2.20
2019-05-25T08:46:55.534Z,1.80
2019-05-25T08:47:19.613Z,2.00
2019-05-25T08:48:19.624Z,2.00
2019-05-25T08:49:19.637Z,2.10
2019-05-25T08:49:24.134Z,2.13
2019-05-25T08:50:19.698Z,2.40
2019-05-25T08:51:20.059Z,2.30
2019-05-25T08:51:55.036Z,2.00
2019-05-25T08:52:19.778Z,2.50
2019-05-25T08:53:31.207Z,2.70
2019-05-25T08:54:19.740Z,2.50
2019-05-25T08:54:23.888Z,2.30
2019-05-25T08:55:19.753Z,2.50
2019-05-25T08:56:19.773Z,2.50
2019-05-25T08:56:52.817Z,1.90
2019-05-25T08:57:19.790Z,2.40
2019-05-25T08:58:19.804Z,2.90
2019-05-25T08:59:19.820Z,2.80
2019-05-25T08:59:21.733Z,2.03
2019-05-25T09:00:19.837Z,2.60
2019-05-25T09:01:19.861Z,2.30
2019-05-25T09:01:50.597Z,1.80
2019-05-25T09:02:19.882Z,2.30
2019-05-25T09:03:19.901Z,2.60
2019-05-25T09:04:19.531Z,2.20
2019-05-25T09:04:19.918Z,2.40
2019-05-25T09:05:19.930Z,2.40
2019-05-25T09:06:19.953Z,2.80
2019-05-25T09:06:48.500Z,2.27
2019-05-25T09:07:19.968Z,3.00
2019-05-25T09:08:19.984Z,2.60
2019-05-25T09:09:17.393Z,2.10
2019-05-25T09:09:20.012Z,3.10
2019-05-25T09:10:20.023Z,2.80
2019-05-25T09:11:20.039Z,3.00
2019-05-25T09:11:46.269Z,2.10
2019-05-25T09:12:20.064Z,3.00
2019-05-25T09:13:20.083Z,3.00
2019-05-25T09:14:15.151Z,2.50
2019-05-25T09:14:20.094Z,2.90
2019-05-25T09:15:20.113Z,2.80
2019-05-25T09:16:20.131Z,2.60
2019-05-25T09:16:44.037Z,2.70
2019-05-25T09:17:20.158Z,3.30
2019-05-25T09:18:20.167Z,2.70
2019-05-25T09:19:12.921Z,2.63
2019-05-25T09:19:20.194Z,2.90
2019-05-25T09:20:20.207Z,3.00
2019-05-25T09:21:20.226Z,3.00
2019-05-25T09:21:41.759Z,2.60
2019-05-25T09:22:20.244Z,3.10
2019-05-25T09:23:20.260Z,3.30
2019-05-25T09:24:10.669Z,2.70
2019-05-25T09:24:20.281Z,2.90
2019-05-25T09:25:20.301Z,2.80
2019-05-25T09:26:20.315Z,2.70
2019-05-25T09:26:39.491Z,2.90
2019-05-25T09:27:20.334Z,3.00
2019-05-25T09:28:20.353Z,3.50
2019-05-25T09:29:08.347Z,3.20